KPMU/PMU METAR and TAF weather

Enter ICAO airport designator
Station Type Date Time Source
KPMU METAR 2019/04/22 19:55 UTC NOAA

KPMU 221955Z AUTO 20008KT CLR 26/10 A3013 RMK AO2


Station Type Date Time Source
KPMU Decoded METAR 2019/04/22 19:55 UTC NOAA

Station name not available
Apr 22, 2019 - 03:55 PM EDT / 2019.04.22 1955 UTC
Wind: from the SSW (200 degrees) at 9 MPH (8 KT):0
Sky conditions: clear
Temperature: 78 F (26 C)
Dew Point: 50 F (10 C)
Relative Humidity: 36%
Pressure (altimeter): 30.13 in. Hg (1020 hPa)
ob: KPMU 221955Z AUTO 20008KT CLR 26/10 A3013 RMK AO2
cycle: 20

Station Type Date Time Source
KPMU TAF UTC NOAA

Error!

Example: see airport list